Time;durP1;ratioP1;P1;durP2;ratioP2;P2;SDS_P1;SDS_P2;PMS_P1;PMS_P2;Temp;Humidity;BMP_temperature;BMP_pressure;BME280_temperature;BME280_humidity;BME280_pressure;Samples;Min_cycle;Max_cycle;Signal;HPM_P1;HPM_P2
2022/05/10 00:00:38;;;;;;;17.63;12.40;;;18.50;58.10;;;;;;5113865;28;20028;-70
2022/05/10 00:03:06;;;;;;;17.55;13.25;;;18.50;58.20;;;;;;5113822;28;20043;-70
2022/05/10 00:05:36;;;;;;;17.25;13.88;;;18.60;58.30;;;;;;5113050;28;20028;-70
2022/05/10 00:08:06;;;;;;;17.13;12.70;;;18.50;58.50;;;;;;5113779;28;20024;-70
2022/05/10 00:10:31;;;;;;;15.65;12.82;;;18.50;58.40;;;;;;5113689;28;20024;-70
2022/05/10 00:12:57;;;;;;;19.35;12.63;;;18.50;58.30;;;;;;5113696;28;20034;-70
2022/05/10 00:15:23;;;;;;;16.63;12.90;;;18.50;58.20;;;;;;5113458;28;20036;-70
2022/05/10 00:17:49;;;;;;;17.58;13.00;;;18.50;58.10;;;;;;5113631;28;20036;-70
2022/05/10 00:20:19;;;;;;;17.27;12.82;;;18.50;58.20;;;;;;5113577;28;20080;-70
2022/05/10 00:22:45;;;;;;;16.67;12.77;;;18.40;58.20;;;;;;5113548;28;20016;-70
2022/05/10 00:25:15;;;;;;;16.60;13.10;;;18.40;59.20;;;;;;5095578;28;20038;-70
2022/05/10 00:27:41;;;;;;;17.00;13.00;;;18.40;58.40;;;;;;5113416;28;20077;-70
2022/05/10 00:30:08;;;;;;;14.88;12.65;;;18.40;58.40;;;;;;5113435;28;20020;-70
2022/05/10 00:32:36;;;;;;;17.58;12.95;;;18.30;58.60;;;;;;5113475;28;20032;-70
2022/05/10 00:35:03;;;;;;;22.38;14.35;;;18.30;58.70;;;;;;5113367;28;20016;-70
2022/05/10 00:37:29;;;;;;;19.23;13.32;;;18.20;58.60;;;;;;5095828;28;20028;-71
2022/05/10 00:39:55;;;;;;;19.80;13.30;;;18.20;58.80;;;;;;5113371;28;20027;-71
2022/05/10 00:42:32;;;;;;;18.80;13.23;;;18.10;59.10;;;;;;5078765;28;20050;-71
2022/05/10 00:45:29;;;;;;;18.23;13.20;;;18.10;59.40;;;;;;5113348;28;20027;-70
2022/05/10 00:48:10;;;;;;;17.27;13.93;;;18.00;59.60;;;;;;5113185;28;20056;-71
2022/05/10 00:50:38;;;;;;;18.20;13.50;;;17.90;59.80;;;;;;5113316;28;20390;-71
2022/05/10 00:53:09;;;;;;;15.68;12.65;;;17.90;59.50;;;;;;5113119;28;20028;-71
2022/05/10 00:55:50;;;;;;;16.35;13.20;;;17.90;59.50;;;;;;5113365;28;20044;-71
2022/05/10 00:58:46;;;;;;;18.85;12.90;;;17.70;59.80;;;;;;5113212;28;20163;-71
2022/05/10 01:01:18;;;;;;;16.50;12.65;;;17.70;60.20;;;;;;5113200;28;20036;-71
2022/05/10 01:03:56;;;;;;;18.00;13.45;;;17.70;60.40;;;;;;5113303;28;20024;-71
2022/05/10 01:06:39;;;;;;;19.40;13.88;;;17.70;60.40;;;;;;5113129;28;20476;-71
2022/05/10 01:09:24;;;;;;;17.10;13.80;;;17.60;60.30;;;;;;5113139;28;20028;-70
2022/05/10 01:11:58;;;;;;;18.33;13.73;;;17.60;60.40;;;;;;5113161;28;20028;-70
2022/05/10 01:14:35;;;;;;;18.67;13.70;;;17.60;60.50;;;;;;5113104;28;20016;-70
2022/05/10 01:17:01;;;;;;;18.83;14.20;;;17.50;60.60;;;;;;5116560;28;20039;-70
2022/05/10 01:19:27;;;;;;;18.42;13.40;;;17.40;60.80;;;;;;5116931;28;20020;-70
2022/05/10 01:22:36;;;;;;;19.20;13.43;;;17.50;61.10;;;;;;5116906;28;20027;-70
2022/05/10 01:25:26;;;;;;;17.77;13.23;;;17.50;60.60;;;;;;5038052;28;20097;-70
2022/05/10 01:28:21;;;;;;;17.63;13.35;;;17.50;60.70;;;;;;5116689;28;20039;-70
2022/05/10 01:30:47;;;;;;;18.73;13.63;;;17.50;60.70;;;;;;5116870;28;20020;-70
2022/05/10 01:33:31;;;;;;;17.77;13.45;;;17.30;61.00;;;;;;5116583;28;20094;-70
2022/05/10 01:36:29;;;;;;;20.63;14.38;;;17.20;61.70;;;;;;5116688;28;20043;-70
2022/05/10 01:39:11;;;;;;;16.38;13.55;;;17.10;62.00;;;;;;5116659;28;20036;-70
2022/05/10 01:42:05;;;;;;;16.00;13.23;;;17.20;62.30;;;;;;5116537;28;20027;-70
2022/05/10 01:44:34;;;;;;;18.20;13.57;;;17.30;62.20;;;;;;5116647;28;20076;-70
2022/05/10 01:47:13;;;;;;;22.15;14.05;;;17.30;62.30;;;;;;5116418;28;20020;-70
2022/05/10 01:49:57;;;;;;;19.52;14.63;;;17.20;62.00;;;;;;5116438;28;20020;-70
2022/05/10 01:52:44;;;;;;;21.30;14.63;;;17.30;63.00;;;;;;5116277;28;20028;-70
2022/05/10 01:55:30;;;;;;;22.38;14.38;;;17.30;62.10;;;;;;5116440;28;20028;-70
2022/05/10 01:58:01;;;;;;;18.27;14.18;;;17.30;62.20;;;;;;5116221;28;20024;-70
2022/05/10 02:00:28;;;;;;;19.52;14.98;;;17.30;61.40;;;;;;5098241;28;20016;-70
2022/05/10 02:03:00;;;;;;;21.02;15.32;;;17.30;62.00;;;;;;5116073;28;20035;-70
2022/05/10 02:05:36;;;;;;;21.95;15.35;;;17.20;62.40;;;;;;5098093;28;20032;-70
2022/05/10 02:08:14;;;;;;;23.80;15.65;;;17.20;62.40;;;;;;5116127;28;20020;-70
2022/05/10 02:10:45;;;;;;;21.25;14.77;;;17.20;62.70;;;;;;5115961;28;20020;-70
2022/05/10 02:13:19;;;;;;;22.45;16.55;;;17.30;62.40;;;;;;5115855;28;20042;-70
2022/05/10 02:15:57;;;;;;;21.80;15.25;;;17.30;62.10;;;;;;5097930;28;20051;-70
2022/05/10 02:18:49;;;;;;;18.92;15.27;;;17.20;62.20;;;;;;5116019;28;20024;-70
2022/05/10 02:21:26;;;;;;;21.95;15.68;;;17.10;62.60;;;;;;5115672;28;20023;-70
2022/05/10 02:24:18;;;;;;;22.67;16.20;;;17.00;62.70;;;;;;5115794;28;20344;-70
2022/05/10 02:26:50;;;;;;;21.15;15.45;;;16.90;63.20;;;;;;5106753;28;20040;-70
2022/05/10 02:29:38;;;;;;;22.67;16.40;;;16.80;63.70;;;;;;5115478;28;20084;-70
2022/05/10 02:34:54;;;;;;;21.58;15.80;;;16.70;64.50;;;;;;5115761;28;20038;-70
2022/05/10 02:37:20;;;;;;;24.65;16.40;;;16.60;64.90;;;;;;5115404;28;20020;-70
2022/05/10 02:39:45;;;;;;;22.50;16.60;;;16.50;65.20;;;;;;5097440;28;20038;-70
2022/05/10 02:42:13;;;;;;;23.45;17.02;;;16.60;65.00;;;;;;5115359;28;20032;-70
2022/05/10 02:44:39;;;;;;;25.85;16.38;;;16.70;64.90;;;;;;5115312;28;20040;-70
2022/05/10 02:47:07;;;;;;;27.85;17.15;;;16.80;64.60;;;;;;5097569;28;20024;-70
2022/05/10 02:49:33;;;;;;;22.50;16.42;;;16.80;64.70;;;;;;5115310;28;20119;-70
2022/05/10 02:51:59;;;;;;;26.27;16.92;;;16.80;64.40;;;;;;5115025;28;20025;-70
2022/05/10 02:54:25;;;;;;;22.52;16.27;;;16.90;64.40;;;;;;5097238;28;20083;-70
2022/05/10 02:56:52;;;;;;;26.13;17.27;;;16.90;64.30;;;;;;5115035;28;20106;-70
2022/05/10 02:59:27;;;;;;;22.90;16.92;;;16.90;64.40;;;;;;5114997;28;20088;-70
2022/05/10 03:02:16;;;;;;;23.02;16.52;;;16.80;64.50;;;;;;5115110;28;20421;-70
2022/05/10 03:04:49;;;;;;;21.70;16.83;;;16.60;65.00;;;;;;5114970;28;20020;-70
2022/05/10 03:07:15;;;;;;;24.80;15.93;;;16.40;65.50;;;;;;5114873;28;20028;-70
2022/05/10 03:09:41;;;;;;;23.98;16.08;;;16.40;65.70;;;;;;5097009;28;20058;-70
2022/05/10 03:12:07;;;;;;;19.35;15.15;;;16.50;65.80;;;;;;5114652;28;20027;-70
2022/05/10 03:14:33;;;;;;;22.40;16.23;;;16.60;65.50;;;;;;5096616;28;20028;-71
2022/05/10 03:16:59;;;;;;;25.02;16.77;;;16.60;65.20;;;;;;5114557;28;20056;-70
2022/05/10 03:19:25;;;;;;;20.58;16.80;;;16.50;65.30;;;;;;5096795;28;20035;-70
2022/05/10 03:21:50;;;;;;;26.80;16.35;;;16.50;65.80;;;;;;5096661;28;20168;-70
2022/05/10 03:24:16;;;;;;;21.02;16.38;;;16.40;65.80;;;;;;5096678;28;20026;-70
2022/05/10 03:26:48;;;;;;;22.13;16.20;;;16.40;66.10;;;;;;5096722;28;20053;-70
2022/05/10 03:29:15;;;;;;;22.80;16.23;;;16.40;66.10;;;;;;5114343;28;20025;-70
2022/05/10 03:31:41;;;;;;;25.75;16.55;;;16.40;66.20;;;;;;5096401;28;20038;-70
2022/05/10 03:36:51;;;;;;;20.85;16.42;;;16.60;66.00;;;;;;5114525;28;20084;-70
2022/05/10 03:39:17;;;;;;;24.00;16.75;;;16.60;66.10;;;;;;5096254;28;20051;-70
2022/05/10 03:41:43;;;;;;;24.85;16.45;;;16.40;66.50;;;;;;5114193;28;20026;-70
2022/05/10 03:44:09;;;;;;;25.70;16.70;;;16.20;67.00;;;;;;5114139;28;20087;-71
2022/05/10 03:46:35;;;;;;;24.20;17.77;;;16.10;67.40;;;;;;5114105;28;20080;-70
2022/05/10 03:49:01;;;;;;;27.00;17.08;;;16.10;67.70;;;;;;5079523;28;20024;-71
2022/05/10 03:51:26;;;;;;;23.50;16.63;;;16.10;67.90;;;;;;5114115;28;20425;-70
2022/05/10 03:53:52;;;;;;;23.02;16.67;;;16.20;68.30;;;;;;5079347;28;20028;-70
2022/05/10 03:56:18;;;;;;;22.90;16.17;;;16.20;68.30;;;;;;5095970;28;20032;-71
2022/05/10 03:58:43;;;;;;;23.10;17.13;;;16.20;68.40;;;;;;5113902;28;20039;-70
2022/05/10 04:01:09;;;;;;;22.00;16.73;;;16.20;68.30;;;;;;5113850;28;20028;-71
2022/05/10 04:03:35;;;;;;;24.67;16.10;;;16.30;68.20;;;;;;5113949;28;20054;-70
2022/05/10 04:06:02;;;;;;;26.45;16.85;;;16.30;67.80;;;;;;5095820;28;20020;-70
2022/05/10 04:08:27;;;;;;;22.75;17.13;;;16.40;67.70;;;;;;5113755;28;20032;-70
2022/05/10 04:10:53;;;;;;;28.45;17.50;;;16.40;67.80;;;;;;5095827;28;20026;-69
2022/05/10 04:13:19;;;;;;;24.48;17.17;;;16.40;67.70;;;;;;5095682;28;20031;-70
2022/05/10 04:15:45;;;;;;;26.67;17.13;;;16.50;67.40;;;;;;5092176;28;20045;-69
2022/05/10 04:18:10;;;;;;;27.23;16.48;;;16.50;67.10;;;;;;5092283;28;20056;-69
2022/05/10 04:20:36;;;;;;;24.08;16.35;;;16.50;67.00;;;;;;5093297;28;20447;-69
2022/05/10 04:23:03;;;;;;;24.92;16.60;;;16.50;67.40;;;;;;5093281;28;20024;-69
2022/05/10 04:25:29;;;;;;;26.63;16.98;;;16.40;67.70;;;;;;5093266;28;20029;-69
2022/05/10 04:27:55;;;;;;;23.52;16.48;;;16.30;67.80;;;;;;5092222;28;20040;-69
2022/05/10 04:30:21;;;;;;;22.75;15.95;;;16.30;68.00;;;;;;5093224;28;20114;-69
2022/05/10 04:32:47;;;;;;;22.17;16.52;;;16.30;68.10;;;;;;5093171;28;20032;-69
2022/05/10 04:35:13;;;;;;;23.08;16.20;;;16.30;68.00;;;;;;5093156;28;20029;-70
2022/05/10 04:37:39;;;;;;;23.50;15.95;;;16.40;67.90;;;;;;5093146;28;20021;-69
2022/05/10 04:42:52;;;;;;;23.10;16.35;;;16.50;67.40;;;;;;5093355;28;20071;-69
2022/05/10 04:45:19;;;;;;;26.10;17.35;;;16.40;67.30;;;;;;5093200;28;20056;-70
2022/05/10 04:47:45;;;;;;;26.92;17.85;;;16.40;67.50;;;;;;5092017;28;20025;-70
2022/05/10 04:50:11;;;;;;;24.33;17.30;;;16.50;67.60;;;;;;5093410;28;20059;-70
2022/05/10 04:52:38;;;;;;;24.70;16.58;;;16.40;67.50;;;;;;5096945;28;20024;-70
2022/05/10 04:55:06;;;;;;;26.60;17.60;;;16.50;67.80;;;;;;5097077;28;20028;-70
2022/05/10 04:57:32;;;;;;;24.67;17.27;;;16.40;67.90;;;;;;5096017;28;20074;-70
2022/05/10 04:59:57;;;;;;;25.52;16.90;;;16.40;68.10;;;;;;5097099;28;20024;-70
2022/05/10 05:02:23;;;;;;;27.20;18.58;;;16.40;68.50;;;;;;5095900;28;20086;-70
2022/05/10 05:04:49;;;;;;;28.38;19.67;;;16.30;68.80;;;;;;5096982;28;20075;-70
2022/05/10 05:07:14;;;;;;;29.65;18.70;;;16.30;69.30;;;;;;5096993;28;20412;-70
2022/05/10 05:09:40;;;;;;;29.75;18.70;;;16.20;69.50;;;;;;5078995;28;20028;-70
2022/05/10 05:12:05;;;;;;;28.88;19.83;;;16.20;69.80;;;;;;5095596;28;20047;-70
2022/05/10 05:14:34;;;;;;;29.25;20.02;;;16.20;70.00;;;;;;5096784;28;20036;-70
2022/05/10 05:17:00;;;;;;;26.48;18.33;;;16.20;70.20;;;;;;5114986;28;20066;-70
2022/05/10 05:19:26;;;;;;;31.30;19.95;;;16.30;70.70;;;;;;5117089;28;20021;-70
2022/05/10 05:21:51;;;;;;;33.50;20.67;;;16.30;69.60;;;;;;5098972;28;20448;-70
2022/05/10 05:24:17;;;;;;;34.80;20.02;;;16.40;69.70;;;;;;5098900;28;20051;-70
2022/05/10 05:26:42;;;;;;;30.48;20.10;;;16.50;69.40;;;;;;5098942;28;20068;-71
2022/05/10 05:29:08;;;;;;;33.35;20.00;;;16.50;68.90;;;;;;5116678;28;20502;-71
2022/05/10 05:31:34;;;;;;;36.05;20.27;;;16.60;69.00;;;;;;5098772;28;20028;-71
2022/05/10 05:33:59;;;;;;;31.30;19.95;;;16.60;68.80;;;;;;5116595;28;20024;-70
2022/05/10 05:36:25;;;;;;;30.20;19.83;;;16.70;68.80;;;;;;5116618;28;20028;-70
2022/05/10 05:38:51;;;;;;;31.55;19.77;;;16.80;68.20;;;;;;5116614;28;20114;-71
2022/05/10 05:41:17;;;;;;;33.28;20.00;;;16.90;68.00;;;;;;5116532;28;20074;-71
2022/05/10 05:43:44;;;;;;;32.47;20.25;;;16.90;67.90;;;;;;5116457;28;20039;-71
2022/05/10 05:46:10;;;;;;;40.70;20.73;;;17.00;68.30;;;;;;5098553;28;20028;-71
2022/05/10 05:48:37;;;;;;;33.45;19.75;;;17.00;68.30;;;;;;5098409;28;20031;-69
2022/05/10 05:51:03;;;;;;;33.85;19.95;;;17.10;69.20;;;;;;5098551;28;20029;-70
2022/05/10 05:53:28;;;;;;;30.45;18.70;;;17.10;68.80;;;;;;5116239;28;20108;-71
2022/05/10 05:56:03;;;;;;;31.83;17.77;;;17.20;68.70;;;;;;5116269;28;20021;-70
2022/05/10 05:58:29;;;;;;;31.13;18.95;;;17.30;69.10;;;;;;5116242;28;20020;-71
2022/05/10 06:00:54;;;;;;;30.00;19.40;;;17.30;69.10;;;;;;5116165;28;20016;-71
2022/05/10 06:03:20;;;;;;;28.83;18.05;;;17.30;69.70;;;;;;5114875;28;20395;-71
2022/05/10 06:05:49;;;;;;;27.60;17.80;;;17.30;69.70;;;;;;5116062;28;20039;-70
2022/05/10 06:08:16;;;;;;;27.48;18.70;;;17.30;69.40;;;;;;5116020;28;20551;-71
2022/05/10 06:10:42;;;;;;;31.17;18.23;;;17.30;69.50;;;;;;5116007;28;20161;-71
2022/05/10 06:13:09;;;;;;;27.30;17.52;;;17.30;69.80;;;;;;5098019;28;20021;-72
2022/05/10 06:15:37;;;;;;;25.23;16.73;;;17.40;69.30;;;;;;5115701;28;20040;-70
2022/05/10 06:18:04;;;;;;;27.33;17.65;;;17.40;69.60;;;;;;5097953;28;20024;-70
2022/05/10 06:20:30;;;;;;;25.77;18.10;;;17.40;69.80;;;;;;5115794;28;20076;-70
2022/05/10 06:22:56;;;;;;;27.80;17.60;;;17.50;69.30;;;;;;5115746;28;20020;-70
2022/05/10 06:25:23;;;;;;;28.98;17.95;;;17.50;69.50;;;;;;5097906;28;20032;-70
2022/05/10 06:27:52;;;;;;;25.35;17.55;;;17.60;69.70;;;;;;5097907;28;20083;-69
2022/05/10 06:30:19;;;;;;;25.75;17.77;;;17.60;69.10;;;;;;5115601;28;20031;-69
2022/05/10 06:32:46;;;;;;;25.40;17.67;;;17.70;68.90;;;;;;5115496;28;20027;-69
2022/05/10 06:35:12;;;;;;;23.90;15.73;;;17.90;68.60;;;;;;5097456;28;20532;-69
2022/05/10 06:40:22;;;;;;;24.10;16.98;;;18.00;68.50;;;;;;5115578;28;20058;-70
2022/05/10 06:42:49;;;;;;;22.50;17.42;;;18.00;68.70;;;;;;5115344;28;20099;-70
2022/05/10 06:45:18;;;;;;;24.60;16.85;;;18.10;68.80;;;;;;5115424;28;20035;-69
2022/05/10 06:47:46;;;;;;;21.60;15.77;;;18.10;68.10;;;;;;5115270;28;20025;-70
2022/05/10 06:50:15;;;;;;;24.75;15.88;;;18.20;68.40;;;;;;5115184;28;20032;-70
2022/05/10 06:52:41;;;;;;;20.42;15.65;;;18.20;67.70;;;;;;5115207;28;20020;-70
2022/05/10 06:55:07;;;;;;;20.33;15.77;;;18.40;67.90;;;;;;5115236;28;20028;-70
2022/05/10 06:57:33;;;;;;;22.13;15.88;;;18.40;67.60;;;;;;5115070;28;20025;-70
2022/05/10 06:59:59;;;;;;;22.52;15.68;;;18.50;67.50;;;;;;5115039;28;20020;-70
2022/05/10 07:02:25;;;;;;;19.95;15.68;;;18.50;67.20;;;;;;5115003;28;20024;-70
2022/05/10 07:04:51;;;;;;;19.77;15.77;;;18.60;66.90;;;;;;5097188;28;20024;-70
2022/05/10 07:07:17;;;;;;;21.52;15.95;;;18.60;66.10;;;;;;5114896;28;20068;-70
2022/05/10 07:09:43;;;;;;;20.17;16.30;;;18.60;66.80;;;;;;5114852;28;20051;-70
2022/05/10 07:12:09;;;;;;;22.60;16.50;;;18.70;65.90;;;;;;5096738;28;20020;-70
2022/05/10 07:14:34;;;;;;;23.25;16.83;;;18.80;66.40;;;;;;5114348;28;20051;-70
2022/05/10 07:17:00;;;;;;;24.33;16.77;;;18.80;66.00;;;;;;5096628;28;20044;-70
2022/05/10 07:19:26;;;;;;;23.33;16.75;;;18.80;65.60;;;;;;5079983;28;20028;-70
2022/05/10 07:21:51;;;;;;;21.70;16.33;;;18.90;66.60;;;;;;5096692;28;20047;-70
2022/05/10 07:24:19;;;;;;;22.17;16.55;;;18.90;65.80;;;;;;5114731;28;20024;-69
2022/05/10 07:26:46;;;;;;;23.88;16.90;;;18.90;65.80;;;;;;5114522;28;20098;-70
2022/05/10 07:29:12;;;;;;;23.10;16.90;;;19.00;65.70;;;;;;5114406;28;20032;-69
2022/05/10 07:31:39;;;;;;;20.30;15.82;;;18.90;66.50;;;;;;5114420;28;20073;-69
2022/05/10 07:34:05;;;;;;;25.80;17.35;;;18.90;65.50;;;;;;5114315;28;20024;-70
2022/05/10 07:36:34;;;;;;;23.52;16.92;;;19.00;65.60;;;;;;5114305;28;20089;-70
2022/05/10 07:39:02;;;;;;;23.70;16.48;;;19.10;65.80;;;;;;5114316;28;20084;-70
2022/05/10 07:41:28;;;;;;;24.48;16.83;;;19.20;66.00;;;;;;5114248;28;20017;-70
2022/05/10 07:43:54;;;;;;;23.83;16.55;;;19.20;65.60;;;;;;5114189;28;20105;-70
2022/05/10 07:46:19;;;;;;;24.55;16.52;;;19.30;66.00;;;;;;5096153;28;20099;-70
2022/05/10 07:48:45;;;;;;;22.60;15.70;;;19.40;65.70;;;;;;5114107;28;20058;-70
2022/05/10 07:51:11;;;;;;;21.55;16.30;;;19.40;65.00;;;;;;5096156;28;20142;-70
2022/05/10 07:53:37;;;;;;;22.20;15.85;;;19.50;65.40;;;;;;5095952;28;20039;-69
2022/05/10 07:56:04;;;;;;;23.50;16.25;;;19.60;65.20;;;;;;5113991;28;20020;-70
2022/05/10 07:58:30;;;;;;;17.75;14.73;;;19.70;65.80;;;;;;5113956;28;20098;-70
2022/05/10 08:00:56;;;;;;;20.42;15.43;;;19.80;64.60;;;;;;5113899;28;20503;-70
2022/05/10 08:03:24;;;;;;;20.92;15.10;;;19.90;64.60;;;;;;5113854;28;20039;-70
2022/05/10 08:05:55;;;;;;;17.58;14.63;;;19.90;64.40;;;;;;5095838;28;20031;-70
2022/05/10 08:08:21;;;;;;;22.80;14.85;;;20.00;63.60;;;;;;5113809;28;20031;-70
2022/05/10 08:10:48;;;;;;;23.27;13.93;;;20.00;63.60;;;;;;5113783;28;20019;-70
2022/05/10 08:13:18;;;;;;;18.60;13.60;;;20.00;62.70;;;;;;5113651;28;20028;-70
2022/05/10 08:15:44;;;;;;;19.45;13.02;;;20.10;63.30;;;;;;5113503;28;20040;-69
2022/05/10 08:18:11;;;;;;;17.65;13.80;;;20.20;63.10;;;;;;5113813;28;20016;-69
2022/05/10 08:20:38;;;;;;;19.05;13.32;;;20.30;63.10;;;;;;5113653;28;20028;-70
2022/05/10 08:23:06;;;;;;;18.15;12.98;;;20.30;62.60;;;;;;5113592;28;20024;-70
2022/05/10 08:25:32;;;;;;;17.48;12.60;;;20.50;62.30;;;;;;5112888;28;20032;-70
2022/05/10 08:27:58;;;;;;;20.30;12.02;;;20.50;61.60;;;;;;5095759;28;20032;-70
2022/05/10 08:30:24;;;;;;;16.65;12.80;;;20.50;60.70;;;;;;5095747;28;20055;-70
2022/05/10 08:32:51;;;;;;;17.30;12.52;;;20.50;61.80;;;;;;5113391;28;20028;-70
2022/05/10 08:35:17;;;;;;;14.88;11.48;;;20.50;62.20;;;;;;5113399;28;20021;-70
2022/05/10 08:37:42;;;;;;;16.30;11.82;;;20.70;61.30;;;;;;5113359;28;20058;-70
2022/05/10 08:40:37;;;;;;;16.92;11.30;;;20.70;61.50;;;;;;5113544;28;20032;-70
2022/05/10 08:43:09;;;;;;;14.80;11.43;;;20.80;60.80;;;;;;5110217;28;20032;-70
2022/05/10 08:45:40;;;;;;;14.93;10.32;;;20.80;59.90;;;;;;5095463;28;20040;-70
2022/05/10 08:48:06;;;;;;;13.27;9.95;;;20.80;60.40;;;;;;5113392;28;20025;-69
2022/05/10 08:50:32;;;;;;;13.82;10.60;;;20.90;60.10;;;;;;5113255;28;20039;-70
2022/05/10 08:52:57;;;;;;;16.58;11.45;;;20.90;60.10;;;;;;5095296;28;20036;-71
2022/05/10 08:55:28;;;;;;;15.07;10.77;;;21.00;60.40;;;;;;5113183;28;20084;-70
2022/05/10 08:58:18;;;;;;;16.23;10.95;;;21.10;60.20;;;;;;5113264;28;20069;-70
2022/05/10 09:00:52;;;;;;;14.32;10.30;;;21.20;60.30;;;;;;5113197;28;20463;-70
2022/05/10 09:03:33;;;;;;;12.20;9.45;;;21.10;59.20;;;;;;5095275;28;20024;-70
2022/05/10 09:06:24;;;;;;;12.10;9.85;;;21.00;57.40;;;;;;5113189;28;20024;-70
2022/05/10 09:08:50;;;;;;;13.00;10.43;;;21.00;57.70;;;;;;5113114;28;20043;-70
2022/05/10 09:11:17;;;;;;;18.10;10.02;;;21.00;57.70;;;;;;5113223;28;20028;-69
2022/05/10 09:13:45;;;;;;;14.70;10.40;;;21.00;58.70;;;;;;5112984;28;20020;-70
2022/05/10 09:16:12;;;;;;;14.75;9.55;;;21.10;58.60;;;;;;5112920;28;20048;-69
2022/05/10 09:18:52;;;;;;;11.20;9.68;;;21.10;58.40;;;;;;5113183;28;20025;-70
2022/05/10 09:21:39;;;;;;;12.50;9.32;;;21.10;58.60;;;;;;5113038;28;20088;-70
2022/05/10 09:24:14;;;;;;;11.48;9.68;;;21.10;57.70;;;;;;5095174;28;20024;-70
2022/05/10 09:26:42;;;;;;;13.35;9.15;;;21.20;58.40;;;;;;5113157;28;20035;-70
2022/05/10 09:29:29;;;;;;;11.75;8.50;;;21.20;57.90;;;;;;5095023;28;20020;-70
2022/05/10 09:34:49;;;;;;;9.90;8.30;;;21.30;57.20;;;;;;5113159;28;20059;-71
2022/05/10 09:37:41;;;;;;;10.65;8.63;;;21.40;57.70;;;;;;5115084;28;20494;-70
2022/05/10 09:40:25;;;;;;;13.70;8.75;;;21.40;56.80;;;;;;5098704;28;20091;-71
2022/05/10 09:43:09;;;;;;;11.50;8.15;;;21.50;57.50;;;;;;5116767;28;20039;-71
2022/05/10 09:45:36;;;;;;;13.63;8.57;;;21.70;57.60;;;;;;5116589;28;20075;-70
2022/05/10 09:48:07;;;;;;;9.38;7.35;;;21.80;54.90;;;;;;5116488;28;20027;-70
2022/05/10 09:50:36;;;;;;;10.52;7.45;;;21.90;54.40;;;;;;5116446;28;20028;-71
2022/05/10 09:53:20;;;;;;;11.40;7.68;;;22.00;54.60;;;;;;5116320;28;20036;-71
2022/05/10 09:56:24;;;;;;;9.40;7.65;;;22.00;53.80;;;;;;5116384;28;20021;-71
2022/05/10 09:59:00;;;;;;;9.30;6.93;;;22.10;56.20;;;;;;5116499;28;20020;-71
2022/05/10 10:01:44;;;;;;;11.13;6.55;;;22.10;56.20;;;;;;5116282;28;20016;-71
2022/05/10 10:04:31;;;;;;;9.80;7.30;;;22.10;52.60;;;;;;5098310;28;20039;-71
2022/05/10 10:07:04;;;;;;;10.65;6.15;;;22.00;52.70;;;;;;5116341;28;20028;-71
2022/05/10 10:09:32;;;;;;;9.85;6.30;;;22.10;52.70;;;;;;5116100;28;20034;-71
2022/05/10 10:11:58;;;;;;;9.48;7.45;;;22.20;53.10;;;;;;5115926;28;20020;-71
2022/05/10 10:14:43;;;;;;;9.77;6.40;;;22.30;52.70;;;;;;5116084;28;20021;-71
2022/05/10 10:17:25;;;;;;;10.45;7.32;;;22.40;52.30;;;;;;5115815;28;20040;-71
2022/05/10 10:20:03;;;;;;;10.70;6.03;;;22.50;54.90;;;;;;5097941;28;20027;-71
2022/05/10 10:22:42;;;;;;;11.63;6.97;;;22.60;51.50;;;;;;5115906;28;20025;-71
2022/05/10 10:25:15;;;;;;;7.47;6.38;;;22.60;52.80;;;;;;5115845;28;20076;-71
2022/05/10 10:27:50;;;;;;;9.45;6.50;;;22.60;53.10;;;;;;5115701;28;20020;-71
2022/05/10 10:30:35;;;;;;;9.13;6.72;;;22.70;52.10;;;;;;5115736;28;20027;-71
2022/05/10 10:33:34;;;;;;;10.50;7.35;;;22.80;51.60;;;;;;5115615;28;20024;-71
2022/05/10 10:36:14;;;;;;;10.23;6.28;;;22.90;50.50;;;;;;5115679;28;20016;-71
2022/05/10 10:38:59;;;;;;;9.45;6.50;;;23.00;50.30;;;;;;5115536;28;20022;-71
2022/05/10 10:41:39;;;;;;;6.80;5.82;;;23.00;52.50;;;;;;5115492;28;20015;-72
2022/05/10 10:44:21;;;;;;;9.20;6.38;;;23.20;51.40;;;;;;5115520;28;20024;-71
2022/05/10 10:47:00;;;;;;;;;;;23.40;51.20;;;;;;5115998;28;20076;-71
2022/05/10 10:49:48;;;;;;;7.50;6.10;;;23.60;50.00;;;;;;5096813;28;19904;-72
2022/05/10 10:52:14;;;;;;;9.68;6.40;;;23.70;47.70;;;;;;5115229;28;20082;-71
2022/05/10 10:54:40;;;;;;;8.95;5.78;;;23.80;51.50;;;;;;5115231;28;20031;-71
2022/05/10 10:57:30;;;;;;;8.55;6.18;;;24.00;49.60;;;;;;5115218;28;20016;-71
2022/05/10 11:00:18;;;;;;;7.82;5.32;;;24.20;50.90;;;;;;5115207;28;20020;-71
2022/05/10 11:03:10;;;;;;;11.57;5.85;;;24.20;45.90;;;;;;5115059;28;20103;-72
2022/05/10 11:05:51;;;;;;;6.47;5.82;;;24.10;46.30;;;;;;5115046;28;20081;-71
2022/05/10 11:08:54;;;;;;;8.38;5.18;;;24.20;46.40;;;;;;5114967;28;20016;-71
2022/05/10 11:11:44;;;;;;;12.45;5.85;;;24.30;46.40;;;;;;5114939;28;20079;-71
2022/05/10 11:14:22;;;;;;;7.82;5.47;;;24.30;44.60;;;;;;5114781;28;20024;-71
2022/05/10 11:16:56;;;;;;;9.10;5.43;;;24.30;43.80;;;;;;5114564;28;20073;-71
2022/05/10 11:19:45;;;;;;;9.65;5.38;;;24.30;45.20;;;;;;5114704;28;20024;-71
2022/05/10 11:22:34;;;;;;;8.77;5.30;;;24.30;44.10;;;;;;5114679;28;20039;-71
2022/05/10 11:25:37;;;;;;;10.57;5.93;;;24.30;45.00;;;;;;5114739;28;20020;-71
2022/05/10 11:28:09;;;;;;;9.23;6.10;;;24.40;47.30;;;;;;5114514;28;20024;-71
2022/05/10 11:31:16;;;;;;;6.53;5.15;;;24.40;46.40;;;;;;5114549;28;20031;-71
2022/05/10 11:34:20;;;;;;;8.25;5.70;;;24.30;43.70;;;;;;5095377;28;20040;-72
2022/05/10 11:36:49;;;;;;;9.73;5.20;;;24.50;44.30;;;;;;5114381;28;20016;-71
2022/05/10 11:39:39;;;;;;;9.85;5.13;;;24.60;43.90;;;;;;5114389;28;20073;-71
2022/05/10 11:42:35;;;;;;;7.32;5.47;;;24.70;44.40;;;;;;5114371;28;20054;-72
2022/05/10 11:45:22;;;;;;;6.90;4.88;;;24.70;45.70;;;;;;5114301;28;20054;-72
2022/05/10 11:48:29;;;;;;;8.40;5.28;;;24.70;43.40;;;;;;5114201;28;20058;-72
2022/05/10 11:54:13;;;;;;;6.93;5.07;;;24.60;43.80;;;;;;5114192;28;20043;-71
2022/05/10 11:56:41;;;;;;;10.25;5.40;;;24.50;42.60;;;;;;5114017;28;20031;-71
2022/05/10 11:59:23;;;;;;;8.68;5.07;;;24.40;43.80;;;;;;5095963;28;20180;-71
2022/05/10 12:01:50;;;;;;;8.85;5.35;;;24.50;45.10;;;;;;5113603;28;20031;-71
2022/05/10 12:04:41;;;;;;;8.40;5.20;;;24.50;45.40;;;;;;5113921;28;20024;-71
2022/05/10 12:07:19;;;;;;;7.95;5.38;;;24.60;43.10;;;;;;5114079;28;20035;-71
2022/05/10 12:09:53;;;;;;;8.80;5.63;;;24.50;41.60;;;;;;5113805;28;20046;-71
2022/05/10 12:13:04;;;;;;;8.88;5.88;;;24.60;43.20;;;;;;5113668;28;20034;-71
2022/05/10 12:21:30;;;;;;;8.60;5.38;;;24.60;44.50;;;;;;5113839;28;20054;-71
2022/05/10 12:24:06;;;;;;;11.13;5.45;;;24.60;41.70;;;;;;5113831;28;20036;-71
2022/05/10 12:26:54;;;;;;;10.00;5.60;;;24.40;43.50;;;;;;5113613;28;20034;-71
2022/05/10 12:29:36;;;;;;;8.55;5.28;;;24.30;44.30;;;;;;5113571;28;20083;-71
2022/05/10 12:32:27;;;;;;;8.07;5.63;;;24.30;43.30;;;;;;5113503;28;20106;-71
2022/05/10 12:34:58;;;;;;;9.73;5.50;;;24.30;43.60;;;;;;5113659;28;20107;-71
2022/05/10 12:37:35;;;;;;;7.45;5.10;;;24.30;42.80;;;;;;5113499;28;20031;-71
2022/05/10 12:40:10;;;;;;;5.63;4.60;;;24.30;43.40;;;;;;5113612;28;20016;-72
2022/05/10 12:42:50;;;;;;;9.25;4.82;;;24.30;42.50;;;;;;5113608;28;20036;-71
2022/05/10 12:45:37;;;;;;;7.18;5.05;;;24.30;42.60;;;;;;5113376;28;20116;-71
2022/05/10 12:48:20;;;;;;;7.60;5.15;;;24.40;42.80;;;;;;5113553;28;20020;-72
2022/05/10 12:51:07;;;;;;;8.68;5.03;;;24.40;42.20;;;;;;5113381;28;20030;-71
2022/05/10 12:54:00;;;;;;;6.93;4.80;;;24.50;41.30;;;;;;5113326;28;20054;-71
2022/05/10 12:56:31;;;;;;;8.32;4.60;;;24.50;41.50;;;;;;5113309;28;20019;-71
2022/05/10 12:59:06;;;;;;;6.90;4.75;;;24.50;41.50;;;;;;5113330;28;20020;-71
2022/05/10 13:01:34;;;;;;;10.45;5.40;;;24.40;40.70;;;;;;5113379;28;20024;-71
2022/05/10 13:04:15;;;;;;;10.48;5.30;;;24.40;41.00;;;;;;5113187;28;20020;-71
2022/05/10 13:06:56;;;;;;;9.40;5.00;;;24.30;41.80;;;;;;5113218;28;20028;-71
2022/05/10 13:09:31;;;;;;;9.38;5.80;;;24.40;42.00;;;;;;5113113;28;20032;-71
2022/05/10 13:12:03;;;;;;;7.70;5.20;;;24.40;43.00;;;;;;5114969;28;20057;-71
2022/05/10 13:14:31;;;;;;;11.18;5.20;;;24.40;42.70;;;;;;5117185;28;20028;-71
2022/05/10 13:16:59;;;;;;;6.40;5.15;;;24.30;42.50;;;;;;5116929;28;20044;-71
2022/05/10 13:19:27;;;;;;;7.45;5.35;;;24.30;42.80;;;;;;5117048;28;20020;-71
2022/05/10 13:21:55;;;;;;;9.80;5.22;;;24.30;42.10;;;;;;5116948;28;20031;-71
2022/05/10 13:24:21;;;;;;;8.55;5.15;;;24.40;44.30;;;;;;5116984;28;20017;-71